sensor_id;sensor_type;location;lat;lon;timestamp;P1;durP1;ratioP1;P2;durP2;ratioP2
46322;SDS011;32044;52.386;13.278;2023-03-03T00:01:39;46.40;;;17.40;;
46322;SDS011;32044;52.386;13.278;2023-03-03T00:04:07;51.65;;;19.60;;
46322;SDS011;32044;52.386;13.278;2023-03-03T00:06:34;39.00;;;17.48;;
46322;SDS011;32044;52.386;13.278;2023-03-03T00:09:02;53.30;;;20.13;;
46322;SDS011;32044;52.386;13.278;2023-03-03T00:11:29;52.53;;;19.83;;
46322;SDS011;32044;52.386;13.278;2023-03-03T00:13:58;38.47;;;18.73;;
46322;SDS011;32044;52.386;13.278;2023-03-03T00:16:27;47.35;;;20.83;;
46322;SDS011;32044;52.386;13.278;2023-03-03T00:18:55;59.58;;;21.38;;
46322;SDS011;32044;52.386;13.278;2023-03-03T00:21:24;56.97;;;22.40;;
46322;SDS011;32044;52.386;13.278;2023-03-03T00:23:57;58.80;;;22.95;;
46322;SDS011;32044;52.386;13.278;2023-03-03T00:26:43;59.20;;;24.75;;
46322;SDS011;32044;52.386;13.278;2023-03-03T00:29:25;54.47;;;25.67;;
46322;SDS011;32044;52.386;13.278;2023-03-03T00:32:17;55.88;;;26.35;;
46322;SDS011;32044;52.386;13.278;2023-03-03T00:34:49;67.75;;;27.02;;
46322;SDS011;32044;52.386;13.278;2023-03-03T00:37:29;57.30;;;24.58;;
46322;SDS011;32044;52.386;13.278;2023-03-03T00:40:00;56.13;;;24.23;;
46322;SDS011;32044;52.386;13.278;2023-03-03T00:42:32;58.00;;;24.05;;
46322;SDS011;32044;52.386;13.278;2023-03-03T00:45:04;49.92;;;23.92;;
46322;SDS011;32044;52.386;13.278;2023-03-03T00:47:35;56.92;;;24.42;;
46322;SDS011;32044;52.386;13.278;2023-03-03T00:50:16;57.08;;;26.30;;
46322;SDS011;32044;52.386;13.278;2023-03-03T00:52:52;54.22;;;25.50;;
46322;SDS011;32044;52.386;13.278;2023-03-03T00:55:26;60.75;;;27.70;;
46322;SDS011;32044;52.386;13.278;2023-03-03T00:57:54;61.88;;;27.63;;
46322;SDS011;32044;52.386;13.278;2023-03-03T01:00:23;66.80;;;31.55;;
46322;SDS011;32044;52.386;13.278;2023-03-03T01:02:50;70.75;;;30.63;;
46322;SDS011;32044;52.386;13.278;2023-03-03T01:05:18;70.32;;;30.95;;
46322;SDS011;32044;52.386;13.278;2023-03-03T01:07:47;69.50;;;30.73;;
46322;SDS011;32044;52.386;13.278;2023-03-03T01:10:14;68.38;;;30.00;;
46322;SDS011;32044;52.386;13.278;2023-03-03T01:12:42;71.32;;;33.10;;
46322;SDS011;32044;52.386;13.278;2023-03-03T01:15:10;66.30;;;32.55;;
46322;SDS011;32044;52.386;13.278;2023-03-03T01:17:40;73.25;;;33.63;;
46322;SDS011;32044;52.386;13.278;2023-03-03T01:20:09;64.80;;;28.27;;
46322;SDS011;32044;52.386;13.278;2023-03-03T01:22:37;59.28;;;28.05;;
46322;SDS011;32044;52.386;13.278;2023-03-03T01:25:05;62.05;;;28.92;;
46322;SDS011;32044;52.386;13.278;2023-03-03T01:27:33;57.47;;;28.10;;
46322;SDS011;32044;52.386;13.278;2023-03-03T01:30:02;61.75;;;27.38;;
46322;SDS011;32044;52.386;13.278;2023-03-03T01:32:29;55.50;;;27.30;;
46322;SDS011;32044;52.386;13.278;2023-03-03T01:34:58;53.83;;;25.45;;
46322;SDS011;32044;52.386;13.278;2023-03-03T01:37:26;53.30;;;26.27;;
46322;SDS011;32044;52.386;13.278;2023-03-03T01:39:53;53.15;;;27.02;;
46322;SDS011;32044;52.386;13.278;2023-03-03T01:42:21;53.38;;;26.50;;
46322;SDS011;32044;52.386;13.278;2023-03-03T01:47:36;53.30;;;25.33;;
46322;SDS011;32044;52.386;13.278;2023-03-03T01:50:07;52.47;;;25.08;;
46322;SDS011;32044;52.386;13.278;2023-03-03T01:52:39;50.33;;;25.15;;
46322;SDS011;32044;52.386;13.278;2023-03-03T01:55:10;58.03;;;25.80;;
46322;SDS011;32044;52.386;13.278;2023-03-03T01:57:39;52.72;;;27.20;;
46322;SDS011;32044;52.386;13.278;2023-03-03T02:00:10;39.40;;;19.25;;
46322;SDS011;32044;52.386;13.278;2023-03-03T02:02:39;53.50;;;24.88;;
46322;SDS011;32044;52.386;13.278;2023-03-03T02:05:09;49.85;;;25.85;;
46322;SDS011;32044;52.386;13.278;2023-03-03T02:07:37;54.25;;;27.63;;
46322;SDS011;32044;52.386;13.278;2023-03-03T02:10:05;55.13;;;27.77;;
46322;SDS011;32044;52.386;13.278;2023-03-03T02:12:35;46.55;;;22.55;;
46322;SDS011;32044;52.386;13.278;2023-03-03T02:15:14;42.45;;;21.23;;
46322;SDS011;32044;52.386;13.278;2023-03-03T02:17:43;45.08;;;22.65;;
46322;SDS011;32044;52.386;13.278;2023-03-03T02:20:13;49.30;;;23.38;;
46322;SDS011;32044;52.386;13.278;2023-03-03T02:22:43;46.47;;;22.90;;
46322;SDS011;32044;52.386;13.278;2023-03-03T02:25:16;47.20;;;22.00;;
46322;SDS011;32044;52.386;13.278;2023-03-03T02:27:50;52.47;;;22.58;;
46322;SDS011;32044;52.386;13.278;2023-03-03T02:30:18;49.55;;;23.30;;
46322;SDS011;32044;52.386;13.278;2023-03-03T02:32:47;53.13;;;26.05;;
46322;SDS011;32044;52.386;13.278;2023-03-03T02:35:25;50.72;;;24.20;;
46322;SDS011;32044;52.386;13.278;2023-03-03T02:37:55;45.67;;;23.48;;
46322;SDS011;32044;52.386;13.278;2023-03-03T02:40:24;50.78;;;25.10;;
46322;SDS011;32044;52.386;13.278;2023-03-03T02:42:54;53.83;;;25.48;;
46322;SDS011;32044;52.386;13.278;2023-03-03T02:45:22;52.70;;;24.55;;
46322;SDS011;32044;52.386;13.278;2023-03-03T02:47:49;53.85;;;25.58;;
46322;SDS011;32044;52.386;13.278;2023-03-03T02:50:17;57.25;;;25.63;;
46322;SDS011;32044;52.386;13.278;2023-03-03T02:52:44;59.30;;;27.23;;
46322;SDS011;32044;52.386;13.278;2023-03-03T02:55:12;52.83;;;25.27;;
46322;SDS011;32044;52.386;13.278;2023-03-03T02:57:39;57.30;;;25.77;;
46322;SDS011;32044;52.386;13.278;2023-03-03T03:00:09;53.03;;;25.33;;
46322;SDS011;32044;52.386;13.278;2023-03-03T03:02:37;52.00;;;24.60;;
46322;SDS011;32044;52.386;13.278;2023-03-03T03:05:05;58.63;;;25.70;;
46322;SDS011;32044;52.386;13.278;2023-03-03T03:07:34;53.80;;;25.77;;
46322;SDS011;32044;52.386;13.278;2023-03-03T03:10:02;57.63;;;27.23;;
46322;SDS011;32044;52.386;13.278;2023-03-03T03:12:30;54.92;;;25.05;;
46322;SDS011;32044;52.386;13.278;2023-03-03T03:14:58;62.75;;;28.17;;
46322;SDS011;32044;52.386;13.278;2023-03-03T03:17:27;60.03;;;27.92;;
46322;SDS011;32044;52.386;13.278;2023-03-03T03:19:54;62.42;;;27.30;;
46322;SDS011;32044;52.386;13.278;2023-03-03T03:22:21;63.65;;;27.55;;
46322;SDS011;32044;52.386;13.278;2023-03-03T03:24:49;57.72;;;27.40;;
46322;SDS011;32044;52.386;13.278;2023-03-03T03:27:16;57.17;;;28.00;;
46322;SDS011;32044;52.386;13.278;2023-03-03T03:29:44;60.65;;;28.30;;
46322;SDS011;32044;52.386;13.278;2023-03-03T03:32:11;60.55;;;28.27;;
46322;SDS011;32044;52.386;13.278;2023-03-03T03:34:40;61.25;;;29.27;;
46322;SDS011;32044;52.386;13.278;2023-03-03T03:37:08;62.85;;;30.15;;
46322;SDS011;32044;52.386;13.278;2023-03-03T03:39:35;67.63;;;31.05;;
46322;SDS011;32044;52.386;13.278;2023-03-03T03:42:03;66.70;;;31.77;;
46322;SDS011;32044;52.386;13.278;2023-03-03T03:44:30;75.75;;;33.38;;
46322;SDS011;32044;52.386;13.278;2023-03-03T03:46:58;74.25;;;32.70;;
46322;SDS011;32044;52.386;13.278;2023-03-03T03:49:25;68.95;;;32.70;;
46322;SDS011;32044;52.386;13.278;2023-03-03T03:51:54;69.75;;;32.17;;
46322;SDS011;32044;52.386;13.278;2023-03-03T03:54:22;76.10;;;33.33;;
46322;SDS011;32044;52.386;13.278;2023-03-03T03:56:49;84.68;;;33.47;;
46322;SDS011;32044;52.386;13.278;2023-03-03T03:59:17;77.05;;;33.78;;
46322;SDS011;32044;52.386;13.278;2023-03-03T04:01:44;73.70;;;33.67;;
46322;SDS011;32044;52.386;13.278;2023-03-03T04:04:13;71.25;;;31.98;;
46322;SDS011;32044;52.386;13.278;2023-03-03T04:06:40;73.68;;;32.05;;
46322;SDS011;32044;52.386;13.278;2023-03-03T04:09:09;74.57;;;33.08;;
46322;SDS011;32044;52.386;13.278;2023-03-03T04:11:37;73.28;;;31.05;;
46322;SDS011;32044;52.386;13.278;2023-03-03T04:14:04;78.82;;;31.38;;
46322;SDS011;32044;52.386;13.278;2023-03-03T04:16:32;75.20;;;31.38;;
46322;SDS011;32044;52.386;13.278;2023-03-03T04:18:59;73.47;;;33.22;;
46322;SDS011;32044;52.386;13.278;2023-03-03T04:21:27;76.22;;;32.60;;
46322;SDS011;32044;52.386;13.278;2023-03-03T04:23:54;79.28;;;33.40;;
46322;SDS011;32044;52.386;13.278;2023-03-03T04:26:23;72.20;;;30.20;;
46322;SDS011;32044;52.386;13.278;2023-03-03T04:28:51;72.60;;;32.25;;
46322;SDS011;32044;52.386;13.278;2023-03-03T04:31:19;76.20;;;31.98;;
46322;SDS011;32044;52.386;13.278;2023-03-03T04:33:47;67.35;;;28.75;;
46322;SDS011;32044;52.386;13.278;2023-03-03T04:36:14;70.15;;;30.35;;
46322;SDS011;32044;52.386;13.278;2023-03-03T04:38:42;72.45;;;28.63;;
46322;SDS011;32044;52.386;13.278;2023-03-03T04:41:09;69.70;;;29.92;;
46322;SDS011;32044;52.386;13.278;2023-03-03T04:43:38;69.25;;;28.38;;
46322;SDS011;32044;52.386;13.278;2023-03-03T04:46:05;78.80;;;29.80;;
46322;SDS011;32044;52.386;13.278;2023-03-03T04:48:33;72.60;;;29.10;;
46322;SDS011;32044;52.386;13.278;2023-03-03T04:51:00;70.85;;;29.92;;
46322;SDS011;32044;52.386;13.278;2023-03-03T04:53:28;79.13;;;29.98;;
46322;SDS011;32044;52.386;13.278;2023-03-03T04:55:56;78.78;;;32.50;;
46322;SDS011;32044;52.386;13.278;2023-03-03T04:58:23;64.32;;;27.60;;
46322;SDS011;32044;52.386;13.278;2023-03-03T05:00:53;65.25;;;27.67;;
46322;SDS011;32044;52.386;13.278;2023-03-03T05:03:22;70.28;;;27.02;;
46322;SDS011;32044;52.386;13.278;2023-03-03T05:05:50;55.60;;;24.90;;
46322;SDS011;32044;52.386;13.278;2023-03-03T05:08:17;64.13;;;27.67;;
46322;SDS011;32044;52.386;13.278;2023-03-03T05:10:45;66.72;;;27.77;;
46322;SDS011;32044;52.386;13.278;2023-03-03T05:13:12;63.45;;;26.90;;
46322;SDS011;32044;52.386;13.278;2023-03-03T05:15:40;68.60;;;27.80;;
46322;SDS011;32044;52.386;13.278;2023-03-03T05:18:09;64.47;;;28.38;;
46322;SDS011;32044;52.386;13.278;2023-03-03T05:20:38;59.78;;;26.80;;
46322;SDS011;32044;52.386;13.278;2023-03-03T05:23:06;58.17;;;26.13;;
46322;SDS011;32044;52.386;13.278;2023-03-03T05:25:33;63.28;;;25.77;;
46322;SDS011;32044;52.386;13.278;2023-03-03T05:28:01;61.47;;;26.17;;
46322;SDS011;32044;52.386;13.278;2023-03-03T05:30:29;66.05;;;26.70;;
46322;SDS011;32044;52.386;13.278;2023-03-03T05:32:57;59.90;;;27.33;;
46322;SDS011;32044;52.386;13.278;2023-03-03T05:35:27;68.30;;;27.45;;
46322;SDS011;32044;52.386;13.278;2023-03-03T05:37:54;58.92;;;25.75;;
46322;SDS011;32044;52.386;13.278;2023-03-03T05:40:23;63.55;;;26.38;;
46322;SDS011;32044;52.386;13.278;2023-03-03T05:42:50;61.20;;;26.40;;
46322;SDS011;32044;52.386;13.278;2023-03-03T05:45:19;56.00;;;24.27;;
46322;SDS011;32044;52.386;13.278;2023-03-03T05:47:46;60.22;;;26.40;;
46322;SDS011;32044;52.386;13.278;2023-03-03T05:50:14;72.03;;;25.20;;
46322;SDS011;32044;52.386;13.278;2023-03-03T05:52:43;70.00;;;27.38;;
46322;SDS011;32044;52.386;13.278;2023-03-03T05:55:11;63.80;;;26.42;;
46322;SDS011;32044;52.386;13.278;2023-03-03T05:57:38;71.28;;;27.73;;
46322;SDS011;32044;52.386;13.278;2023-03-03T06:00:06;76.38;;;27.02;;
46322;SDS011;32044;52.386;13.278;2023-03-03T06:02:34;69.82;;;27.48;;
46322;SDS011;32044;52.386;13.278;2023-03-03T06:05:02;73.13;;;27.77;;
46322;SDS011;32044;52.386;13.278;2023-03-03T06:07:29;61.42;;;25.00;;
46322;SDS011;32044;52.386;13.278;2023-03-03T06:09:58;59.25;;;25.25;;
46322;SDS011;32044;52.386;13.278;2023-03-03T06:12:26;58.00;;;25.45;;
46322;SDS011;32044;52.386;13.278;2023-03-03T06:14:53;58.92;;;25.40;;
46322;SDS011;32044;52.386;13.278;2023-03-03T06:17:21;52.00;;;23.02;;
46322;SDS011;32044;52.386;13.278;2023-03-03T06:19:48;60.30;;;23.92;;
46322;SDS011;32044;52.386;13.278;2023-03-03T06:22:16;53.45;;;23.88;;
46322;SDS011;32044;52.386;13.278;2023-03-03T06:24:43;62.20;;;25.15;;
46322;SDS011;32044;52.386;13.278;2023-03-03T06:27:12;57.00;;;26.17;;
46322;SDS011;32044;52.386;13.278;2023-03-03T06:29:39;58.70;;;26.08;;
46322;SDS011;32044;52.386;13.278;2023-03-03T06:32:07;57.58;;;23.38;;
46322;SDS011;32044;52.386;13.278;2023-03-03T06:34:35;50.00;;;22.55;;
46322;SDS011;32044;52.386;13.278;2023-03-03T06:37:02;47.75;;;21.38;;
46322;SDS011;32044;52.386;13.278;2023-03-03T06:39:30;53.47;;;23.30;;
46322;SDS011;32044;52.386;13.278;2023-03-03T06:41:57;51.67;;;21.70;;
46322;SDS011;32044;52.386;13.278;2023-03-03T06:44:26;48.78;;;21.38;;
46322;SDS011;32044;52.386;13.278;2023-03-03T06:46:54;49.55;;;22.25;;
46322;SDS011;32044;52.386;13.278;2023-03-03T06:49:24;58.53;;;23.60;;
46322;SDS011;32044;52.386;13.278;2023-03-03T06:51:51;59.78;;;23.77;;
46322;SDS011;32044;52.386;13.278;2023-03-03T06:54:19;57.22;;;23.70;;
46322;SDS011;32044;52.386;13.278;2023-03-03T06:56:51;57.28;;;23.00;;
46322;SDS011;32044;52.386;13.278;2023-03-03T06:59:20;60.97;;;22.98;;
46322;SDS011;32044;52.386;13.278;2023-03-03T07:01:49;59.75;;;23.10;;
46322;SDS011;32044;52.386;13.278;2023-03-03T07:04:21;55.40;;;23.23;;
46322;SDS011;32044;52.386;13.278;2023-03-03T07:06:54;57.13;;;23.08;;
46322;SDS011;32044;52.386;13.278;2023-03-03T07:09:22;59.90;;;24.58;;
46322;SDS011;32044;52.386;13.278;2023-03-03T07:11:51;61.85;;;25.13;;
46322;SDS011;32044;52.386;13.278;2023-03-03T07:14:19;59.35;;;24.95;;
46322;SDS011;32044;52.386;13.278;2023-03-03T07:16:50;67.22;;;27.27;;
46322;SDS011;32044;52.386;13.278;2023-03-03T07:19:22;56.33;;;24.10;;
46322;SDS011;32044;52.386;13.278;2023-03-03T07:21:56;50.13;;;21.98;;
46322;SDS011;32044;52.386;13.278;2023-03-03T07:24:25;51.95;;;21.50;;
46322;SDS011;32044;52.386;13.278;2023-03-03T07:26:55;42.58;;;19.45;;
46322;SDS011;32044;52.386;13.278;2023-03-03T07:29:27;44.65;;;19.52;;
46322;SDS011;32044;52.386;13.278;2023-03-03T07:31:57;39.95;;;17.50;;
46322;SDS011;32044;52.386;13.278;2023-03-03T07:34:26;38.25;;;17.88;;
46322;SDS011;32044;52.386;13.278;2023-03-03T07:36:57;43.22;;;17.88;;
46322;SDS011;32044;52.386;13.278;2023-03-03T07:39:30;43.17;;;18.30;;
46322;SDS011;32044;52.386;13.278;2023-03-03T07:42:01;43.67;;;17.35;;
46322;SDS011;32044;52.386;13.278;2023-03-03T07:44:40;46.67;;;19.92;;
46322;SDS011;32044;52.386;13.278;2023-03-03T07:47:14;44.60;;;20.02;;
46322;SDS011;32044;52.386;13.278;2023-03-03T07:49:46;44.10;;;20.00;;
46322;SDS011;32044;52.386;13.278;2023-03-03T07:52:17;45.58;;;20.48;;
46322;SDS011;32044;52.386;13.278;2023-03-03T07:54:50;44.35;;;19.75;;
46322;SDS011;32044;52.386;13.278;2023-03-03T07:57:19;44.60;;;20.05;;
46322;SDS011;32044;52.386;13.278;2023-03-03T07:59:48;49.65;;;20.92;;
46322;SDS011;32044;52.386;13.278;2023-03-03T08:02:37;42.60;;;17.20;;
46322;SDS011;32044;52.386;13.278;2023-03-03T08:07:51;42.72;;;18.60;;
46322;SDS011;32044;52.386;13.278;2023-03-03T08:10:27;42.80;;;17.70;;
46322;SDS011;32044;52.386;13.278;2023-03-03T08:12:58;40.05;;;18.50;;
46322;SDS011;32044;52.386;13.278;2023-03-03T08:15:29;39.60;;;18.08;;
46322;SDS011;32044;52.386;13.278;2023-03-03T08:17:59;40.28;;;19.40;;
46322;SDS011;32044;52.386;13.278;2023-03-03T08:23:13;49.78;;;20.95;;
46322;SDS011;32044;52.386;13.278;2023-03-03T08:25:42;45.60;;;19.35;;
46322;SDS011;32044;52.386;13.278;2023-03-03T08:28:11;48.25;;;18.60;;
46322;SDS011;32044;52.386;13.278;2023-03-03T08:30:39;45.63;;;18.60;;
46322;SDS011;32044;52.386;13.278;2023-03-03T08:33:08;43.17;;;18.85;;
46322;SDS011;32044;52.386;13.278;2023-03-03T08:35:36;43.47;;;17.63;;
46322;SDS011;32044;52.386;13.278;2023-03-03T08:38:03;42.55;;;18.23;;
46322;SDS011;32044;52.386;13.278;2023-03-03T08:40:32;39.83;;;17.38;;
46322;SDS011;32044;52.386;13.278;2023-03-03T08:43:00;39.67;;;17.42;;
46322;SDS011;32044;52.386;13.278;2023-03-03T08:45:27;38.20;;;17.45;;
46322;SDS011;32044;52.386;13.278;2023-03-03T08:47:55;35.85;;;16.05;;
46322;SDS011;32044;52.386;13.278;2023-03-03T08:50:26;32.90;;;15.50;;
46322;SDS011;32044;52.386;13.278;2023-03-03T08:52:54;31.15;;;15.60;;
46322;SDS011;32044;52.386;13.278;2023-03-03T08:55:22;41.50;;;17.92;;
46322;SDS011;32044;52.386;13.278;2023-03-03T08:57:49;35.80;;;17.08;;
46322;SDS011;32044;52.386;13.278;2023-03-03T09:00:17;32.35;;;15.30;;
46322;SDS011;32044;52.386;13.278;2023-03-03T09:02:45;33.97;;;16.77;;
46322;SDS011;32044;52.386;13.278;2023-03-03T09:05:13;30.42;;;14.13;;
46322;SDS011;32044;52.386;13.278;2023-03-03T09:07:42;30.83;;;14.88;;
46322;SDS011;32044;52.386;13.278;2023-03-03T09:10:13;28.60;;;13.80;;
46322;SDS011;32044;52.386;13.278;2023-03-03T09:12:43;25.42;;;11.63;;
46322;SDS011;32044;52.386;13.278;2023-03-03T09:15:15;27.50;;;13.73;;
46322;SDS011;32044;52.386;13.278;2023-03-03T09:17:45;29.38;;;13.63;;
46322;SDS011;32044;52.386;13.278;2023-03-03T09:20:21;23.63;;;12.90;;
46322;SDS011;32044;52.386;13.278;2023-03-03T09:22:52;26.65;;;12.80;;
46322;SDS011;32044;52.386;13.278;2023-03-03T09:25:21;27.42;;;14.10;;
46322;SDS011;32044;52.386;13.278;2023-03-03T09:27:51;26.98;;;13.65;;
46322;SDS011;32044;52.386;13.278;2023-03-03T09:30:33;27.52;;;14.18;;
46322;SDS011;32044;52.386;13.278;2023-03-03T09:33:16;23.15;;;12.80;;
46322;SDS011;32044;52.386;13.278;2023-03-03T09:35:48;27.17;;;14.02;;
46322;SDS011;32044;52.386;13.278;2023-03-03T09:38:26;26.58;;;13.95;;
46322;SDS011;32044;52.386;13.278;2023-03-03T09:41:03;26.40;;;13.38;;
46322;SDS011;32044;52.386;13.278;2023-03-03T09:43:41;19.20;;;10.88;;
46322;SDS011;32044;52.386;13.278;2023-03-03T09:46:19;19.88;;;10.77;;
46322;SDS011;32044;52.386;13.278;2023-03-03T09:48:55;19.42;;;11.07;;
46322;SDS011;32044;52.386;13.278;2023-03-03T09:51:36;20.73;;;11.70;;
46322;SDS011;32044;52.386;13.278;2023-03-03T09:54:32;23.60;;;12.23;;
46322;SDS011;32044;52.386;13.278;2023-03-03T09:57:08;24.85;;;13.02;;
46322;SDS011;32044;52.386;13.278;2023-03-03T09:59:42;21.02;;;11.23;;
46322;SDS011;32044;52.386;13.278;2023-03-03T10:02:37;18.92;;;10.50;;
46322;SDS011;32044;52.386;13.278;2023-03-03T10:05:18;24.38;;;11.18;;
46322;SDS011;32044;52.386;13.278;2023-03-03T10:07:53;18.70;;;10.45;;
46322;SDS011;32044;52.386;13.278;2023-03-03T10:10:30;21.52;;;11.55;;
46322;SDS011;32044;52.386;13.278;2023-03-03T10:13:10;23.83;;;11.73;;
46322;SDS011;32044;52.386;13.278;2023-03-03T10:15:45;21.38;;;11.13;;
46322;SDS011;32044;52.386;13.278;2023-03-03T10:18:21;21.40;;;11.02;;
46322;SDS011;32044;52.386;13.278;2023-03-03T10:21:01;23.33;;;11.63;;
46322;SDS011;32044;52.386;13.278;2023-03-03T10:23:41;24.85;;;12.65;;
46322;SDS011;32044;52.386;13.278;2023-03-03T10:26:18;24.73;;;11.43;;
46322;SDS011;32044;52.386;13.278;2023-03-03T10:29:09;24.17;;;12.35;;
46322;SDS011;32044;52.386;13.278;2023-03-03T10:31:54;23.27;;;11.80;;
46322;SDS011;32044;52.386;13.278;2023-03-03T10:34:34;20.80;;;9.95;;
46322;SDS011;32044;52.386;13.278;2023-03-03T10:37:12;25.30;;;13.73;;
46322;SDS011;32044;52.386;13.278;2023-03-03T10:39:48;26.63;;;13.07;;
46322;SDS011;32044;52.386;13.278;2023-03-03T10:42:34;28.83;;;12.88;;
46322;SDS011;32044;52.386;13.278;2023-03-03T10:45:19;22.50;;;12.07;;
46322;SDS011;32044;52.386;13.278;2023-03-03T10:48:01;27.67;;;13.55;;
46322;SDS011;32044;52.386;13.278;2023-03-03T10:50:36;28.05;;;14.02;;
46322;SDS011;32044;52.386;13.278;2023-03-03T10:53:15;28.77;;;13.77;;
46322;SDS011;32044;52.386;13.278;2023-03-03T10:55:51;27.98;;;14.55;;
46322;SDS011;32044;52.386;13.278;2023-03-03T10:58:28;31.95;;;14.75;;
46322;SDS011;32044;52.386;13.278;2023-03-03T11:01:04;33.88;;;15.43;;
46322;SDS011;32044;52.386;13.278;2023-03-03T11:04:02;35.90;;;16.40;;
46322;SDS011;32044;52.386;13.278;2023-03-03T11:06:50;36.35;;;16.90;;
46322;SDS011;32044;52.386;13.278;2023-03-03T11:09:27;37.78;;;16.75;;
46322;SDS011;32044;52.386;13.278;2023-03-03T11:12:02;33.28;;;15.07;;
46322;SDS011;32044;52.386;13.278;2023-03-03T11:14:38;29.45;;;14.85;;
46322;SDS011;32044;52.386;13.278;2023-03-03T11:17:13;28.40;;;15.45;;
46322;SDS011;32044;52.386;13.278;2023-03-03T11:19:50;36.10;;;16.15;;
46322;SDS011;32044;52.386;13.278;2023-03-03T11:22:27;35.08;;;15.98;;
46322;SDS011;32044;52.386;13.278;2023-03-03T11:25:02;36.25;;;15.52;;
46322;SDS011;32044;52.386;13.278;2023-03-03T11:27:52;32.22;;;14.30;;
46322;SDS011;32044;52.386;13.278;2023-03-03T11:30:29;31.05;;;15.35;;
46322;SDS011;32044;52.386;13.278;2023-03-03T11:33:02;30.58;;;14.73;;
46322;SDS011;32044;52.386;13.278;2023-03-03T11:35:34;30.05;;;13.88;;
46322;SDS011;32044;52.386;13.278;2023-03-03T11:38:20;30.83;;;15.07;;
46322;SDS011;32044;52.386;13.278;2023-03-03T11:40:54;32.97;;;14.30;;
46322;SDS011;32044;52.386;13.278;2023-03-03T11:43:25;29.40;;;15.15;;
46322;SDS011;32044;52.386;13.278;2023-03-03T11:46:04;29.65;;;13.88;;
46322;SDS011;32044;52.386;13.278;2023-03-03T11:48:35;35.05;;;14.80;;
46322;SDS011;32044;52.386;13.278;2023-03-03T11:51:06;33.40;;;14.73;;
46322;SDS011;32044;52.386;13.278;2023-03-03T11:53:39;31.50;;;15.48;;
46322;SDS011;32044;52.386;13.278;2023-03-03T11:56:16;36.53;;;15.13;;
46322;SDS011;32044;52.386;13.278;2023-03-03T11:58:49;35.95;;;16.73;;
46322;SDS011;32044;52.386;13.278;2023-03-03T12:01:24;41.03;;;17.52;;
46322;SDS011;32044;52.386;13.278;2023-03-03T12:03:56;40.30;;;17.00;;
46322;SDS011;32044;52.386;13.278;2023-03-03T12:06:28;41.15;;;19.50;;
46322;SDS011;32044;52.386;13.278;2023-03-03T12:09:02;47.85;;;20.75;;
46322;SDS011;32044;52.386;13.278;2023-03-03T12:11:43;43.53;;;20.02;;
46322;SDS011;32044;52.386;13.278;2023-03-03T12:14:25;38.40;;;18.08;;
46322;SDS011;32044;52.386;13.278;2023-03-03T12:17:05;41.28;;;18.55;;
46322;SDS011;32044;52.386;13.278;2023-03-03T12:19:41;40.80;;;19.00;;
46322;SDS011;32044;52.386;13.278;2023-03-03T12:22:16;38.78;;;19.35;;
46322;SDS011;32044;52.386;13.278;2023-03-03T12:24:56;38.72;;;18.92;;
46322;SDS011;32044;52.386;13.278;2023-03-03T12:27:37;37.10;;;18.48;;
46322;SDS011;32044;52.386;13.278;2023-03-03T12:30:11;44.25;;;19.70;;
46322;SDS011;32044;52.386;13.278;2023-03-03T12:32:47;46.50;;;20.38;;
46322;SDS011;32044;52.386;13.278;2023-03-03T12:35:25;40.83;;;20.23;;
46322;SDS011;32044;52.386;13.278;2023-03-03T12:37:58;41.65;;;19.70;;
46322;SDS011;32044;52.386;13.278;2023-03-03T12:40:31;40.10;;;20.50;;
46322;SDS011;32044;52.386;13.278;2023-03-03T12:43:10;47.05;;;21.13;;
46322;SDS011;32044;52.386;13.278;2023-03-03T12:45:47;38.10;;;19.52;;
46322;SDS011;32044;52.386;13.278;2023-03-03T12:48:22;42.03;;;19.67;;
46322;SDS011;32044;52.386;13.278;2023-03-03T12:50:54;36.92;;;18.48;;
46322;SDS011;32044;52.386;13.278;2023-03-03T12:53:29;39.38;;;17.98;;
46322;SDS011;32044;52.386;13.278;2023-03-03T12:56:04;35.22;;;17.65;;
46322;SDS011;32044;52.386;13.278;2023-03-03T12:58:37;38.97;;;17.75;;
46322;SDS011;32044;52.386;13.278;2023-03-03T13:01:15;38.15;;;18.02;;
46322;SDS011;32044;52.386;13.278;2023-03-03T13:03:54;35.92;;;18.45;;
46322;SDS011;32044;52.386;13.278;2023-03-03T13:06:26;37.47;;;19.92;;
46322;SDS011;32044;52.386;13.278;2023-03-03T13:08:59;40.88;;;19.48;;
46322;SDS011;32044;52.386;13.278;2023-03-03T13:11:33;36.55;;;18.95;;
46322;SDS011;32044;52.386;13.278;2023-03-03T13:14:09;41.47;;;19.88;;
46322;SDS011;32044;52.386;13.278;2023-03-03T13:16:43;39.58;;;19.80;;
46322;SDS011;32044;52.386;13.278;2023-03-03T13:19:14;38.83;;;19.15;;
46322;SDS011;32044;52.386;13.278;2023-03-03T13:21:45;38.90;;;19.42;;
46322;SDS011;32044;52.386;13.278;2023-03-03T13:24:17;38.97;;;19.30;;
46322;SDS011;32044;52.386;13.278;2023-03-03T13:26:48;40.70;;;18.65;;
46322;SDS011;32044;52.386;13.278;2023-03-03T13:29:19;25.92;;;13.02;;
46322;SDS011;32044;52.386;13.278;2023-03-03T13:31:58;35.28;;;18.10;;
46322;SDS011;32044;52.386;13.278;2023-03-03T13:34:32;35.53;;;18.83;;
46322;SDS011;32044;52.386;13.278;2023-03-03T13:37:04;34.15;;;17.98;;
46322;SDS011;32044;52.386;13.278;2023-03-03T13:39:36;32.20;;;17.35;;
46322;SDS011;32044;52.386;13.278;2023-03-03T13:42:07;32.33;;;17.85;;
46322;SDS011;32044;52.386;13.278;2023-03-03T13:44:39;34.20;;;18.48;;
46322;SDS011;32044;52.386;13.278;2023-03-03T13:47:12;34.92;;;16.80;;
46322;SDS011;32044;52.386;13.278;2023-03-03T13:49:46;29.85;;;16.23;;
46322;SDS011;32044;52.386;13.278;2023-03-03T13:52:35;28.25;;;15.30;;
46322;SDS011;32044;52.386;13.278;2023-03-03T13:55:11;29.00;;;14.93;;
46322;SDS011;32044;52.386;13.278;2023-03-03T13:57:51;33.42;;;16.75;;
46322;SDS011;32044;52.386;13.278;2023-03-03T14:00:26;30.00;;;15.77;;
46322;SDS011;32044;52.386;13.278;2023-03-03T14:03:10;28.52;;;15.88;;
46322;SDS011;32044;52.386;13.278;2023-03-03T14:05:46;28.98;;;16.23;;
46322;SDS011;32044;52.386;13.278;2023-03-03T14:08:21;28.00;;;15.90;;
46322;SDS011;32044;52.386;13.278;2023-03-03T14:10:58;26.55;;;15.82;;
46322;SDS011;32044;52.386;13.278;2023-03-03T14:13:39;30.20;;;16.55;;
46322;SDS011;32044;52.386;13.278;2023-03-03T14:16:13;27.58;;;15.55;;
46322;SDS011;32044;52.386;13.278;2023-03-03T14:18:45;32.08;;;18.25;;
46322;SDS011;32044;52.386;13.278;2023-03-03T14:21:23;31.00;;;16.50;;
46322;SDS011;32044;52.386;13.278;2023-03-03T14:23:56;29.25;;;15.48;;
46322;SDS011;32044;52.386;13.278;2023-03-03T14:26:26;28.02;;;14.93;;
46322;SDS011;32044;52.386;13.278;2023-03-03T14:29:02;29.05;;;15.57;;
46322;SDS011;32044;52.386;13.278;2023-03-03T14:31:37;28.50;;;16.58;;
46322;SDS011;32044;52.386;13.278;2023-03-03T14:34:13;27.73;;;16.15;;
46322;SDS011;32044;52.386;13.278;2023-03-03T14:36:57;30.73;;;16.83;;
46322;SDS011;32044;52.386;13.278;2023-03-03T14:39:35;29.05;;;15.82;;
46322;SDS011;32044;52.386;13.278;2023-03-03T14:42:09;31.83;;;16.35;;
46322;SDS011;32044;52.386;13.278;2023-03-03T14:44:47;31.90;;;17.10;;